createdAt,value
2022-12-03T00:00:13.402Z,2.13
2022-12-03T00:01:17.855Z,2.17
2022-12-03T00:02:21.762Z,2.18
2022-12-03T00:03:25.857Z,2.18
2022-12-03T00:04:29.785Z,2.19
2022-12-03T00:05:33.576Z,2.20
2022-12-03T00:06:37.554Z,2.19
2022-12-03T00:07:41.537Z,2.16
2022-12-03T00:08:45.373Z,2.18
2022-12-03T00:09:48.959Z,2.21
2022-12-03T00:10:52.433Z,2.19
2022-12-03T00:11:55.990Z,2.19
2022-12-03T00:12:59.465Z,2.16
2022-12-03T00:14:03.523Z,2.15
2022-12-03T00:15:09.478Z,2.15
2022-12-03T00:16:14.324Z,2.17
2022-12-03T00:17:18.757Z,2.16
2022-12-03T00:18:22.343Z,2.18
2022-12-03T00:19:26.344Z,2.19
2022-12-03T00:20:30.274Z,2.18
2022-12-03T00:21:35.160Z,2.17
2022-12-03T00:22:38.765Z,2.17
2022-12-03T00:23:42.651Z,2.18
2022-12-03T00:24:49.580Z,2.21
2022-12-03T00:25:53.433Z,2.23
2022-12-03T00:26:57.514Z,2.25
2022-12-03T00:28:01.578Z,2.25
2022-12-03T00:29:05.582Z,2.28
2022-12-03T00:30:14.080Z,2.29
2022-12-03T00:31:23.776Z,2.28
2022-12-03T00:32:27.775Z,2.30
2022-12-03T00:33:31.806Z,2.32
2022-12-03T00:34:35.502Z,2.32
2022-12-03T00:35:39.352Z,2.34
2022-12-03T00:36:43.533Z,2.36
2022-12-03T00:37:47.308Z,2.34
2022-12-03T00:38:51.566Z,2.29
2022-12-03T00:39:55.518Z,2.28
2022-12-03T00:40:59.298Z,2.25
2022-12-03T00:42:03.181Z,2.27
2022-12-03T00:43:08.148Z,2.26
2022-12-03T00:44:12.344Z,2.28
2022-12-03T00:45:16.182Z,2.30
2022-12-03T00:46:21.795Z,2.32
2022-12-03T00:47:25.929Z,2.32
2022-12-03T00:48:29.615Z,2.33
2022-12-03T00:49:33.469Z,2.34
2022-12-03T00:50:37.411Z,2.34
2022-12-03T00:51:41.640Z,2.35
2022-12-03T00:52:45.424Z,2.34
2022-12-03T00:53:49.221Z,2.32
2022-12-03T00:54:53.219Z,2.25
2022-12-03T00:55:57.501Z,2.30
2022-12-03T00:57:02.450Z,2.24
2022-12-03T00:58:08.697Z,2.27
2022-12-03T00:59:12.592Z,2.28
2022-12-03T01:00:16.837Z,2.29
2022-12-03T01:01:21.749Z,2.28
2022-12-03T01:02:28.387Z,2.31
2022-12-03T01:03:38.834Z,2.32
2022-12-03T01:04:42.649Z,2.30
2022-12-03T01:05:47.616Z,2.31
2022-12-03T01:06:55.507Z,2.31
2022-12-03T01:07:59.407Z,2.33
2022-12-03T01:09:05.956Z,2.34
2022-12-03T01:10:13.935Z,2.34
2022-12-03T01:11:36.439Z,2.34
2022-12-03T01:12:40.806Z,2.33
2022-12-03T01:13:45.908Z,2.36
2022-12-03T01:14:52.494Z,2.32
2022-12-03T01:16:06.430Z,2.33
2022-12-03T01:17:10.837Z,2.31
2022-12-03T01:18:20.509Z,2.27
2022-12-03T01:19:25.455Z,2.25
2022-12-03T01:20:39.056Z,2.26
2022-12-03T01:21:47.039Z,2.28
2022-12-03T01:23:00.688Z,2.21
2022-12-03T01:24:06.098Z,2.20
2022-12-03T01:25:15.041Z,2.21
2022-12-03T01:26:19.063Z,2.22
2022-12-03T01:27:23.459Z,2.23
2022-12-03T01:28:29.851Z,2.24
2022-12-03T01:29:33.723Z,2.25
2022-12-03T01:30:57.595Z,2.22
2022-12-03T01:32:23.005Z,2.27
2022-12-03T01:33:31.394Z,2.27
2022-12-03T01:34:35.468Z,2.30
2022-12-03T01:35:39.133Z,2.31
2022-12-03T01:36:46.096Z,2.32
2022-12-03T01:37:52.193Z,2.34
2022-12-03T01:38:55.967Z,2.32
2022-12-03T01:40:23.797Z,2.29
2022-12-03T01:41:33.180Z,2.28
2022-12-03T01:42:44.122Z,2.31
2022-12-03T01:43:51.934Z,2.26
2022-12-03T01:45:00.380Z,2.28
2022-12-03T01:46:23.946Z,2.29
2022-12-03T01:47:37.995Z,2.28
2022-12-03T01:48:42.007Z,2.31
2022-12-03T01:50:03.393Z,2.28
2022-12-03T01:51:08.484Z,2.29
2022-12-03T01:52:20.139Z,2.28
2022-12-03T01:53:24.782Z,2.26
2022-12-03T01:54:51.824Z,2.26
2022-12-03T01:55:58.158Z,2.25
2022-12-03T01:57:09.834Z,2.27
2022-12-03T01:58:30.046Z,2.22
2022-12-03T01:59:39.423Z,2.24
2022-12-03T02:00:46.379Z,2.22
2022-12-03T02:01:50.229Z,2.23
2022-12-03T02:03:02.047Z,2.25
2022-12-03T02:04:05.998Z,2.25
2022-12-03T02:05:25.114Z,2.26
2022-12-03T02:06:30.557Z,2.24
2022-12-03T02:07:34.983Z,2.28
2022-12-03T02:08:40.955Z,2.28
2022-12-03T02:09:47.936Z,2.29
2022-12-03T02:10:52.097Z,2.30
2022-12-03T02:11:56.177Z,2.32
2022-12-03T02:13:10.284Z,2.27
2022-12-03T02:14:21.858Z,2.28
2022-12-03T02:15:26.301Z,2.29
2022-12-03T02:16:31.480Z,2.28
2022-12-03T02:17:35.703Z,2.22
2022-12-03T02:18:43.841Z,2.23
2022-12-03T02:19:51.865Z,2.21
2022-12-03T02:21:17.274Z,2.24
2022-12-03T02:22:43.009Z,2.20
2022-12-03T02:24:28.057Z,2.19
2022-12-03T02:25:36.088Z,2.18
2022-12-03T02:26:40.166Z,2.18
2022-12-03T02:27:45.595Z,2.19
2022-12-03T02:28:49.515Z,2.21
2022-12-03T02:29:54.108Z,2.21
2022-12-03T02:30:58.731Z,2.21
2022-12-03T02:32:08.818Z,2.20
2022-12-03T02:33:19.931Z,2.21
2022-12-03T02:34:58.959Z,2.20
2022-12-03T02:36:04.741Z,2.15
2022-12-03T02:37:24.878Z,2.02
2022-12-03T02:38:33.159Z,2.08
2022-12-03T02:39:44.546Z,2.10
2022-12-03T02:40:53.614Z,2.09
2022-12-03T02:42:19.667Z,2.09
2022-12-03T02:43:30.483Z,2.12
2022-12-03T02:44:38.561Z,2.14
2022-12-03T02:45:51.661Z,2.06
2022-12-03T02:46:55.848Z,2.03
2022-12-03T02:48:19.856Z,2.05
2022-12-03T02:49:23.687Z,2.03
2022-12-03T02:50:34.273Z,2.02
2022-12-03T02:51:37.877Z,2.02
2022-12-03T02:52:49.559Z,2.00
2022-12-03T02:53:57.300Z,2.02
2022-12-03T02:55:05.038Z,1.99
2022-12-03T02:56:21.004Z,1.97
2022-12-03T02:57:25.017Z,2.03
2022-12-03T02:58:34.867Z,2.04
2022-12-03T02:59:39.987Z,2.02
2022-12-03T03:00:47.299Z,2.02
2022-12-03T03:01:53.486Z,2.01
2022-12-03T03:02:57.883Z,1.99
2022-12-03T03:04:05.102Z,2.01
2022-12-03T03:05:12.469Z,2.01
2022-12-03T03:06:19.274Z,2.03
2022-12-03T03:07:33.204Z,2.02
2022-12-03T03:08:42.060Z,2.01
2022-12-03T03:09:56.733Z,2.04
2022-12-03T03:11:02.553Z,2.01
2022-12-03T03:12:07.075Z,2.04
2022-12-03T03:13:19.359Z,1.97
2022-12-03T03:14:23.581Z,2.02
2022-12-03T03:15:27.345Z,2.04
2022-12-03T03:16:31.144Z,2.06
2022-12-03T03:17:35.051Z,2.06
2022-12-03T03:18:39.200Z,2.08
2022-12-03T03:19:43.182Z,2.10
2022-12-03T03:20:46.995Z,2.09
2022-12-03T03:21:51.244Z,2.12
2022-12-03T03:22:55.530Z,2.11
2022-12-03T03:23:59.198Z,2.12
2022-12-03T03:25:04.983Z,2.12
2022-12-03T03:26:14.623Z,2.12
2022-12-03T03:27:21.358Z,2.12
2022-12-03T03:28:27.419Z,2.13
2022-12-03T03:29:34.135Z,2.11
2022-12-03T03:30:41.265Z,2.09
2022-12-03T03:31:46.985Z,2.08
2022-12-03T03:32:50.956Z,2.10
2022-12-03T03:33:54.672Z,2.14
2022-12-03T03:34:59.125Z,2.15
2022-12-03T03:36:03.672Z,2.17
2022-12-03T03:37:10.074Z,2.18
2022-12-03T03:38:16.309Z,2.17
2022-12-03T03:39:20.357Z,2.14
2022-12-03T03:40:24.924Z,2.17
2022-12-03T03:41:30.205Z,2.16
2022-12-03T03:42:35.180Z,2.18
2022-12-03T03:43:42.456Z,2.20
2022-12-03T03:44:48.336Z,2.18
2022-12-03T03:45:54.776Z,2.20
2022-12-03T03:46:59.219Z,2.20
2022-12-03T03:48:03.852Z,2.20
2022-12-03T03:49:10.648Z,2.16
2022-12-03T03:50:16.341Z,2.13
2022-12-03T03:51:22.334Z,2.01
2022-12-03T03:52:26.279Z,2.00
2022-12-03T03:53:31.336Z,2.02
2022-12-03T03:54:35.360Z,2.01
2022-12-03T03:55:40.441Z,2.03
2022-12-03T03:56:44.635Z,2.04
2022-12-03T03:57:49.047Z,2.05
2022-12-03T03:58:53.123Z,2.02
2022-12-03T03:59:59.962Z,2.04
2022-12-03T04:01:04.227Z,2.05
2022-12-03T04:02:32.402Z,2.05
2022-12-03T04:03:40.099Z,2.07
2022-12-03T04:04:43.987Z,2.04
2022-12-03T04:05:51.207Z,2.02
2022-12-03T04:06:55.621Z,2.02
2022-12-03T04:07:59.777Z,2.03
2022-12-03T04:09:03.592Z,2.05
2022-12-03T04:10:29.528Z,2.06
2022-12-03T04:11:51.891Z,2.08
2022-12-03T04:12:55.561Z,2.11
2022-12-03T04:13:59.275Z,2.13
2022-12-03T04:15:03.122Z,2.11
2022-12-03T04:16:10.134Z,2.11
2022-12-03T04:17:13.783Z,2.12
2022-12-03T04:18:36.164Z,2.11
2022-12-03T04:19:39.840Z,2.12
2022-12-03T04:20:43.642Z,2.12
2022-12-03T04:22:09.648Z,2.08
2022-12-03T04:23:13.626Z,2.06
2022-12-03T04:24:17.349Z,2.09
2022-12-03T04:25:39.950Z,2.10
2022-12-03T04:27:02.862Z,2.13
2022-12-03T04:28:25.440Z,2.14
2022-12-03T04:29:29.760Z,2.16
2022-12-03T04:30:33.738Z,2.14
2022-12-03T04:31:56.468Z,2.14
2022-12-03T04:33:19.079Z,2.17
2022-12-03T04:34:42.135Z,2.18
2022-12-03T04:35:46.800Z,2.13
2022-12-03T04:36:58.024Z,2.17
2022-12-03T04:38:08.321Z,2.12
2022-12-03T04:39:12.173Z,2.10
2022-12-03T04:40:34.635Z,2.11
2022-12-03T04:41:41.616Z,2.12
2022-12-03T04:42:45.241Z,2.10
2022-12-03T04:44:07.787Z,2.08
2022-12-03T04:45:12.005Z,2.10
2022-12-03T04:46:16.037Z,2.11
2022-12-03T04:47:22.353Z,2.13
2022-12-03T04:48:26.455Z,2.07
2022-12-03T04:49:31.124Z,2.07
2022-12-03T04:50:38.187Z,2.09
2022-12-03T04:51:42.288Z,2.11
2022-12-03T04:52:46.252Z,2.13
2022-12-03T04:53:50.147Z,2.13
2022-12-03T04:54:53.934Z,2.13
2022-12-03T04:56:00.035Z,2.09
2022-12-03T04:57:05.790Z,2.08
2022-12-03T04:58:10.019Z,2.09
2022-12-03T04:59:16.596Z,2.06
2022-12-03T05:00:23.869Z,2.03
2022-12-03T05:01:28.050Z,2.05
2022-12-03T05:02:32.059Z,2.08
2022-12-03T05:03:35.675Z,2.08
2022-12-03T05:04:39.773Z,2.10
2022-12-03T05:05:43.609Z,2.12
2022-12-03T05:06:47.990Z,2.15
2022-12-03T05:07:51.865Z,2.13
2022-12-03T05:08:55.716Z,2.15
2022-12-03T05:10:00.079Z,2.16
2022-12-03T05:11:08.414Z,2.04
2022-12-03T05:12:15.592Z,2.07
2022-12-03T05:13:23.545Z,2.00
2022-12-03T05:14:27.380Z,2.00
2022-12-03T05:15:31.244Z,1.96
2022-12-03T05:16:35.678Z,1.88
2022-12-03T05:17:39.918Z,1.86
2022-12-03T05:18:43.691Z,1.89
2022-12-03T05:20:06.145Z,1.94
2022-12-03T05:21:10.041Z,1.96
2022-12-03T05:22:14.276Z,2.00
2022-12-03T05:23:18.385Z,2.01
2022-12-03T05:24:25.267Z,2.03
2022-12-03T05:25:29.231Z,2.06
2022-12-03T05:26:36.733Z,2.07
2022-12-03T05:27:40.412Z,2.01
2022-12-03T05:28:44.027Z,2.03
2022-12-03T05:29:50.762Z,2.07
2022-12-03T05:30:55.861Z,2.08
2022-12-03T05:32:07.707Z,2.05
2022-12-03T05:33:12.639Z,2.08
2022-12-03T05:34:16.582Z,2.10
2022-12-03T05:35:20.919Z,2.08
2022-12-03T05:36:26.371Z,2.08
2022-12-03T05:37:30.118Z,2.03
2022-12-03T05:38:34.218Z,2.01
2022-12-03T05:39:38.384Z,2.03
2022-12-03T05:40:42.577Z,2.05
2022-12-03T05:42:10.317Z,1.92
2022-12-03T05:43:14.731Z,1.96
2022-12-03T05:44:20.668Z,1.94
2022-12-03T05:45:39.746Z,1.91
2022-12-03T05:46:44.336Z,1.93
2022-12-03T05:47:48.743Z,1.93
2022-12-03T05:48:53.124Z,1.89
2022-12-03T05:49:56.854Z,1.93
2022-12-03T05:51:00.520Z,1.95
2022-12-03T05:52:07.309Z,1.98
2022-12-03T05:53:13.426Z,1.98
2022-12-03T05:54:17.667Z,1.94
2022-12-03T05:55:21.645Z,1.99
2022-12-03T05:56:26.056Z,2.03
2022-12-03T05:57:29.773Z,2.05
2022-12-03T05:58:34.391Z,2.06
2022-12-03T05:59:38.310Z,2.08
2022-12-03T06:00:43.128Z,2.10
2022-12-03T06:01:47.042Z,2.12
2022-12-03T06:02:51.714Z,2.14
2022-12-03T06:04:02.033Z,2.13
2022-12-03T06:05:08.107Z,2.15
2022-12-03T06:06:11.787Z,2.15
2022-12-03T06:07:15.502Z,2.12
2022-12-03T06:08:19.226Z,2.12
2022-12-03T06:09:22.818Z,2.11
2022-12-03T06:10:27.606Z,2.11
2022-12-03T06:11:34.107Z,2.12
2022-12-03T06:12:37.641Z,2.13
2022-12-03T06:13:41.398Z,2.05
2022-12-03T06:14:44.983Z,2.03
2022-12-03T06:15:52.398Z,2.05
2022-12-03T06:16:56.093Z,2.03
2022-12-03T06:18:00.016Z,2.04
2022-12-03T06:19:03.991Z,2.01
2022-12-03T06:20:15.520Z,2.03
2022-12-03T06:21:19.689Z,2.05
2022-12-03T06:22:24.470Z,2.04
2022-12-03T06:23:28.537Z,2.05
2022-12-03T06:24:32.697Z,2.06
2022-12-03T06:25:36.963Z,2.08
2022-12-03T06:26:40.759Z,2.06
2022-12-03T06:27:45.690Z,1.98
2022-12-03T06:28:49.530Z,2.02
2022-12-03T06:29:54.135Z,2.02
2022-12-03T06:30:58.632Z,2.00
2022-12-03T06:32:08.515Z,2.00
2022-12-03T06:33:12.406Z,1.97
2022-12-03T06:34:16.183Z,1.90
2022-12-03T06:35:20.229Z,1.86
2022-12-03T06:36:24.737Z,1.87
2022-12-03T06:37:28.705Z,1.86
2022-12-03T06:38:32.861Z,1.88
2022-12-03T06:39:37.033Z,1.89
2022-12-03T06:40:42.571Z,1.89
2022-12-03T06:42:04.149Z,1.83
2022-12-03T06:43:17.622Z,1.82
2022-12-03T06:44:21.904Z,1.85
2022-12-03T06:45:27.967Z,1.87
2022-12-03T06:46:32.763Z,1.86
2022-12-03T06:47:37.011Z,1.88
2022-12-03T06:48:41.341Z,1.84
2022-12-03T06:49:45.175Z,1.87
2022-12-03T06:50:48.854Z,1.82
2022-12-03T06:51:52.975Z,1.78
2022-12-03T06:52:56.774Z,1.77
2022-12-03T06:54:00.647Z,1.76
2022-12-03T06:55:07.812Z,1.75
2022-12-03T06:56:16.087Z,1.70
2022-12-03T06:57:25.043Z,1.76
2022-12-03T06:58:28.898Z,1.72
2022-12-03T06:59:34.450Z,1.69
2022-12-03T07:00:38.866Z,1.64
2022-12-03T07:01:43.166Z,1.62
2022-12-03T07:02:46.991Z,1.67
2022-12-03T07:03:53.676Z,1.70
2022-12-03T07:05:09.182Z,1.72
2022-12-03T07:06:14.117Z,1.76
2022-12-03T07:07:17.742Z,1.79
2022-12-03T07:08:21.708Z,1.81
2022-12-03T07:09:25.947Z,1.80
2022-12-03T07:10:29.814Z,1.84
2022-12-03T07:11:40.663Z,1.88
2022-12-03T07:12:44.778Z,1.91
2022-12-03T07:13:48.873Z,1.95
2022-12-03T07:14:53.254Z,1.98
2022-12-03T07:15:57.578Z,1.97
2022-12-03T07:17:01.852Z,2.01
2022-12-03T07:18:08.910Z,2.00
2022-12-03T07:19:14.426Z,1.95
2022-12-03T07:20:18.670Z,1.89
2022-12-03T07:21:23.993Z,1.86
2022-12-03T07:22:31.333Z,1.83
2022-12-03T07:23:39.430Z,1.83
2022-12-03T07:24:46.546Z,1.75
2022-12-03T07:25:50.137Z,1.81
2022-12-03T07:26:57.326Z,1.79
2022-12-03T07:28:01.227Z,1.82
2022-12-03T07:29:06.360Z,1.85
2022-12-03T07:30:16.685Z,1.85
2022-12-03T07:31:27.243Z,1.84
2022-12-03T07:32:31.568Z,1.88
2022-12-03T07:33:51.508Z,1.89
2022-12-03T07:34:59.166Z,1.91
2022-12-03T07:36:07.417Z,1.91
2022-12-03T07:37:13.104Z,1.92
2022-12-03T07:38:16.756Z,1.92
2022-12-03T07:39:24.829Z,1.95
2022-12-03T07:40:32.131Z,1.98
2022-12-03T07:41:39.061Z,1.99
2022-12-03T07:42:45.822Z,2.03
2022-12-03T07:43:50.497Z,2.03
2022-12-03T07:45:05.833Z,2.07
2022-12-03T07:46:13.417Z,2.07
2022-12-03T07:47:19.009Z,2.10
2022-12-03T07:48:30.789Z,2.12
2022-12-03T07:49:38.411Z,2.08
2022-12-03T07:50:47.536Z,2.13
2022-12-03T07:51:59.905Z,2.14
2022-12-03T07:53:08.365Z,2.18
2022-12-03T08:24:53.673Z,1.94
2022-12-03T08:26:14.577Z,1.95
2022-12-03T08:27:22.659Z,1.98
2022-12-03T08:28:33.171Z,1.96
2022-12-03T08:29:38.345Z,1.99
2022-12-03T08:31:12.803Z,1.93
2022-12-03T08:32:21.720Z,2.00
2022-12-03T08:33:40.018Z,1.96
2022-12-03T08:34:53.036Z,1.92
2022-12-03T08:36:01.832Z,1.94
2022-12-03T08:37:21.164Z,1.99
2022-12-03T08:38:30.371Z,1.98
2022-12-03T08:39:46.818Z,1.91
2022-12-03T08:40:59.063Z,1.97
2022-12-03T08:42:43.900Z,2.01
2022-12-03T08:43:56.315Z,1.94
2022-12-03T08:45:42.173Z,2.01
2022-12-03T08:47:24.092Z,2.05
2022-12-03T08:48:47.058Z,2.03
2022-12-03T08:51:09.049Z,2.04
2022-12-03T08:52:31.271Z,2.01
2022-12-03T08:53:49.499Z,2.01
2022-12-03T08:55:39.593Z,2.06
2022-12-03T08:56:48.964Z,2.07
2022-12-03T08:57:57.363Z,2.10
2022-12-03T08:59:34.814Z,2.12
2022-12-03T09:00:43.264Z,2.12
2022-12-03T09:01:58.608Z,2.09
2022-12-03T09:03:36.032Z,2.15
2022-12-03T09:04:54.651Z,2.17
2022-12-03T09:06:04.811Z,2.21
2022-12-03T09:08:43.349Z,2.27
2022-12-03T09:09:47.957Z,2.25
2022-12-03T09:10:57.556Z,2.30
2022-12-03T09:12:08.786Z,2.31
2022-12-03T09:13:13.608Z,2.29
2022-12-03T09:14:25.589Z,2.36
2022-12-03T09:15:47.250Z,2.40
2022-12-03T09:17:02.837Z,2.40
2022-12-03T09:18:14.692Z,2.41
2022-12-03T09:19:34.200Z,2.45
2022-12-03T09:20:41.811Z,2.43
2022-12-03T09:21:55.629Z,2.44
2022-12-03T09:23:01.066Z,2.45
2022-12-03T09:24:11.436Z,2.47
2022-12-03T09:25:22.152Z,2.46
2022-12-03T09:26:29.152Z,2.49
2022-12-03T09:27:33.409Z,2.50
2022-12-03T09:28:43.381Z,2.51
2022-12-03T09:29:51.072Z,2.52
2022-12-03T09:31:03.677Z,2.50
2022-12-03T09:32:19.725Z,2.42
2022-12-03T09:33:35.627Z,2.42
2022-12-03T09:34:43.083Z,2.41
2022-12-03T09:35:57.863Z,2.37
2022-12-03T09:37:15.364Z,2.41
2022-12-03T09:38:28.683Z,2.41
2022-12-03T09:39:36.744Z,2.41
2022-12-03T09:40:44.611Z,2.45
2022-12-03T09:42:02.742Z,2.46
2022-12-03T09:43:14.811Z,2.47
2022-12-03T09:44:34.482Z,2.52
2022-12-03T09:45:41.702Z,2.53
2022-12-03T09:46:49.727Z,2.55
2022-12-03T09:48:17.125Z,2.49
2022-12-03T09:49:20.929Z,2.51
2022-12-03T09:50:31.650Z,2.56
2022-12-03T09:51:38.226Z,2.56
2022-12-03T09:52:51.732Z,2.59
2022-12-03T09:54:05.328Z,2.59
2022-12-03T09:55:24.079Z,2.58
2022-12-03T09:56:30.804Z,2.59
2022-12-03T09:57:34.962Z,2.55
2022-12-03T09:58:41.588Z,2.57
2022-12-03T09:59:48.645Z,2.54
2022-12-03T10:00:53.191Z,2.54
2022-12-03T10:02:06.106Z,2.52
2022-12-03T10:03:16.512Z,2.46
2022-12-03T10:04:20.913Z,2.46
2022-12-03T10:05:30.188Z,2.48
2022-12-03T10:06:34.267Z,2.48
2022-12-03T10:07:41.192Z,2.50
2022-12-03T10:08:54.857Z,2.55
2022-12-03T10:10:00.456Z,2.56
2022-12-03T10:11:04.296Z,2.54
2022-12-03T10:13:34.807Z,2.54
2022-12-03T10:14:40.642Z,2.51
2022-12-03T10:15:44.938Z,2.46
2022-12-03T10:16:49.735Z,2.47
2022-12-03T10:17:58.571Z,2.51
2022-12-03T10:19:02.828Z,2.45
2022-12-03T10:20:14.151Z,2.46
2022-12-03T10:21:51.481Z,2.44
2022-12-03T10:22:59.123Z,2.47
2022-12-03T10:24:32.923Z,2.47
2022-12-03T10:26:00.315Z,2.50
2022-12-03T10:27:22.766Z,2.47
2022-12-03T10:28:47.674Z,2.46
2022-12-03T10:29:58.036Z,2.53
2022-12-03T10:31:12.919Z,2.52
2022-12-03T10:32:17.875Z,2.59
2022-12-03T10:33:21.695Z,2.60
2022-12-03T10:34:41.164Z,2.62
2022-12-03T10:35:45.859Z,2.63
2022-12-03T10:37:23.771Z,2.65
2022-12-03T10:38:30.479Z,2.69
2022-12-03T10:39:55.989Z,2.72
2022-12-03T10:41:22.202Z,2.74
2022-12-03T10:42:34.551Z,2.73
2022-12-03T10:43:45.131Z,2.68
2022-12-03T10:45:07.570Z,2.70
2022-12-03T10:46:21.263Z,2.66
2022-12-03T10:47:26.060Z,2.68
2022-12-03T10:48:35.872Z,2.65
2022-12-03T10:51:25.558Z,2.68
2022-12-03T10:52:30.122Z,2.71
2022-12-03T10:53:37.744Z,2.69
2022-12-03T10:54:44.957Z,2.71
2022-12-03T10:55:51.941Z,2.73
2022-12-03T10:56:56.516Z,2.68
2022-12-03T10:58:05.214Z,2.70
2022-12-03T10:59:26.433Z,2.72
2022-12-03T11:00:35.897Z,2.72
2022-12-03T11:01:40.168Z,2.70
2022-12-03T11:02:44.132Z,2.71
2022-12-03T11:03:50.661Z,2.72
2022-12-03T11:05:01.634Z,2.71
2022-12-03T11:06:08.167Z,2.77
2022-12-03T11:07:20.362Z,2.72
2022-12-03T11:08:31.847Z,2.71
2022-12-03T11:09:37.147Z,2.72
2022-12-03T11:10:40.885Z,2.74
2022-12-03T11:11:45.250Z,2.69
2022-12-03T11:13:31.538Z,2.67
2022-12-03T11:14:51.300Z,2.62
2022-12-03T11:15:59.358Z,2.63
2022-12-03T11:17:09.850Z,2.63
2022-12-03T11:18:40.088Z,2.59
2022-12-03T11:19:47.790Z,2.56
2022-12-03T11:21:13.503Z,2.56
2022-12-03T11:22:27.584Z,2.61
2022-12-03T11:24:00.227Z,2.67
2022-12-03T11:25:25.632Z,2.69
2022-12-03T11:26:29.597Z,2.72
2022-12-03T11:27:38.080Z,2.72
2022-12-03T11:28:53.398Z,2.70
2022-12-03T11:30:01.919Z,2.66
2022-12-03T11:31:42.285Z,2.65
2022-12-03T11:33:01.525Z,2.67
2022-12-03T11:34:17.480Z,2.63
2022-12-03T11:35:24.375Z,2.62
2022-12-03T11:36:54.002Z,2.63
2022-12-03T11:37:53.192Z,2.63
2022-12-03T11:38:57.767Z,2.67
2022-12-03T11:40:27.518Z,2.68
2022-12-03T11:41:35.202Z,2.70
2022-12-03T11:42:41.016Z,2.72
2022-12-03T11:43:58.392Z,2.70
2022-12-03T11:45:18.592Z,2.73
2022-12-03T11:46:38.419Z,2.77
2022-12-03T11:48:12.358Z,2.80
2022-12-03T11:49:39.941Z,2.82
2022-12-03T11:50:54.102Z,2.79
2022-12-03T11:52:02.909Z,2.72
2022-12-03T11:53:38.949Z,2.65
2022-12-03T11:55:26.059Z,2.70
2022-12-03T11:56:36.278Z,2.69
2022-12-03T11:57:56.689Z,2.68
2022-12-03T11:59:21.232Z,2.70
2022-12-03T12:00:25.661Z,2.70
2022-12-03T12:01:41.852Z,2.67
2022-12-03T12:02:57.023Z,2.67
2022-12-03T12:04:26.257Z,2.67
2022-12-03T12:05:39.315Z,2.71
2022-12-03T12:06:53.674Z,2.68
2022-12-03T12:07:59.354Z,2.72
2022-12-03T12:09:06.505Z,2.75
2022-12-03T12:10:12.194Z,2.78
2022-12-03T12:11:43.743Z,2.80
2022-12-03T12:12:54.656Z,2.85
2022-12-03T12:14:13.962Z,2.86
2022-12-03T12:16:04.261Z,2.86
2022-12-03T12:17:36.122Z,2.81
2022-12-03T12:18:52.396Z,2.83
2022-12-03T12:20:29.158Z,2.79
2022-12-03T12:22:27.604Z,2.74
2022-12-03T12:23:31.369Z,2.77
2022-12-03T12:24:47.041Z,2.80
2022-12-03T12:25:54.185Z,2.82
2022-12-03T12:27:08.125Z,2.81
2022-12-03T12:28:11.833Z,2.85
2022-12-03T12:29:18.800Z,2.85
2022-12-03T12:30:24.331Z,2.91
2022-12-03T12:31:27.998Z,2.93
2022-12-03T12:32:47.574Z,2.90
2022-12-03T12:33:56.551Z,2.92
2022-12-03T12:35:29.539Z,2.89
2022-12-03T12:36:35.582Z,2.86
2022-12-03T12:37:59.572Z,2.90
2022-12-03T12:39:16.765Z,2.87
2022-12-03T12:40:25.271Z,2.85
2022-12-03T12:41:36.287Z,2.84
2022-12-03T12:43:23.538Z,2.85
2022-12-03T12:44:31.949Z,2.83
2022-12-03T12:45:47.458Z,2.87
2022-12-03T12:47:01.253Z,2.86
2022-12-03T12:48:25.091Z,2.87
2022-12-03T12:49:34.594Z,2.91
2022-12-03T12:50:48.241Z,2.92
2022-12-03T12:51:55.890Z,2.89
2022-12-03T12:53:31.946Z,2.88
2022-12-03T12:54:49.922Z,2.88
2022-12-03T12:56:26.596Z,2.87
2022-12-03T12:57:30.674Z,2.85
2022-12-03T12:58:42.157Z,2.79
2022-12-03T12:59:51.545Z,2.81
2022-12-03T13:01:07.320Z,2.81
2022-12-03T13:02:31.108Z,2.87
2022-12-03T13:03:41.634Z,2.83
2022-12-03T13:04:50.796Z,2.82
2022-12-03T13:06:06.306Z,2.87
2022-12-03T13:07:12.889Z,2.89
2022-12-03T13:08:45.807Z,2.87
2022-12-03T13:09:55.721Z,2.88
2022-12-03T13:11:02.680Z,2.90
2022-12-03T13:12:24.231Z,2.92
2022-12-03T13:13:44.252Z,2.93
2022-12-03T13:14:50.970Z,2.96
2022-12-03T13:16:12.879Z,2.97
2022-12-03T13:17:25.363Z,2.93
2022-12-03T13:20:22.205Z,2.89
2022-12-03T13:21:45.354Z,2.85
2022-12-03T13:22:54.387Z,2.87
2022-12-03T13:24:01.856Z,2.84
2022-12-03T13:27:41.637Z,2.85
2022-12-03T13:28:47.067Z,2.87
2022-12-03T13:30:07.910Z,2.83
2022-12-03T13:31:29.193Z,2.85
2022-12-03T13:32:38.530Z,2.83
2022-12-03T13:33:45.502Z,2.82
2022-12-03T13:34:56.535Z,2.82
2022-12-03T13:36:12.801Z,2.81
2022-12-03T13:37:28.207Z,2.74
2022-12-03T13:38:35.642Z,2.77
2022-12-03T13:40:00.237Z,2.75
2022-12-03T13:41:04.374Z,2.71
2022-12-03T13:42:44.703Z,2.75
2022-12-03T13:44:03.115Z,2.79
2022-12-03T13:45:19.971Z,2.72
2022-12-03T13:46:24.205Z,2.73
2022-12-03T13:47:30.286Z,2.79
2022-12-03T13:48:45.658Z,2.80
2022-12-03T13:50:19.141Z,2.78
2022-12-03T13:51:39.861Z,2.77
2022-12-03T13:52:44.166Z,2.74
2022-12-03T13:53:51.017Z,2.80
2022-12-03T13:55:03.139Z,2.74
2022-12-03T13:56:31.772Z,2.78
2022-12-03T13:57:39.734Z,2.74
2022-12-03T13:58:49.984Z,2.69
2022-12-03T13:59:58.728Z,2.62
2022-12-03T14:01:05.528Z,2.65
2022-12-03T14:02:12.550Z,2.67
2022-12-03T14:03:17.903Z,2.63
2022-12-03T14:04:25.230Z,2.66
2022-12-03T14:05:29.660Z,2.68
2022-12-03T14:06:33.911Z,2.61
2022-12-03T14:07:38.721Z,2.62
2022-12-03T14:08:42.437Z,2.64
2022-12-03T14:09:46.021Z,2.64
2022-12-03T14:10:49.592Z,2.66
2022-12-03T14:12:12.883Z,2.66
2022-12-03T14:13:17.128Z,2.58
2022-12-03T14:14:20.948Z,2.61
2022-12-03T14:15:27.537Z,2.55
2022-12-03T14:16:31.183Z,2.54
2022-12-03T14:17:37.578Z,2.45
2022-12-03T14:18:45.757Z,2.45
2022-12-03T14:20:05.842Z,2.47
2022-12-03T14:21:15.044Z,2.41
2022-12-03T14:22:24.472Z,2.42
2022-12-03T14:23:37.812Z,2.40
2022-12-03T14:24:43.530Z,2.40
2022-12-03T14:25:50.604Z,2.40
2022-12-03T14:26:55.496Z,2.40
2022-12-03T14:28:04.095Z,2.39
2022-12-03T14:29:21.499Z,2.43
2022-12-03T14:30:26.510Z,2.45
2022-12-03T14:31:32.900Z,2.46
2022-12-03T14:32:38.580Z,2.49
2022-12-03T14:33:46.245Z,2.54
2022-12-03T14:34:52.444Z,2.55
2022-12-03T14:36:03.717Z,2.47
2022-12-03T14:37:14.704Z,2.43
2022-12-03T14:38:43.740Z,2.38
2022-12-03T14:40:09.229Z,2.38
2022-12-03T14:41:38.937Z,2.38
2022-12-03T14:42:46.994Z,2.30
2022-12-03T14:43:52.046Z,2.32
2022-12-03T14:44:59.816Z,2.31
2022-12-03T14:46:06.140Z,2.35
2022-12-03T14:47:19.633Z,2.40
2022-12-03T14:48:25.679Z,2.38
2022-12-03T14:49:30.129Z,2.38
2022-12-03T14:50:40.501Z,2.37
2022-12-03T14:51:49.014Z,2.40
2022-12-03T14:52:55.095Z,2.40
2022-12-03T14:53:59.803Z,2.42
2022-12-03T14:55:08.684Z,2.43
2022-12-03T14:56:15.040Z,2.45
2022-12-03T14:57:20.303Z,2.44
2022-12-03T14:58:28.606Z,2.42
2022-12-03T14:59:33.603Z,2.40
2022-12-03T15:00:38.267Z,2.39
2022-12-03T15:01:45.191Z,2.37
2022-12-03T15:02:59.887Z,2.39
2022-12-03T15:04:09.706Z,2.39
2022-12-03T15:05:14.320Z,2.36
2022-12-03T15:06:20.397Z,2.41
2022-12-03T15:07:25.574Z,2.42
2022-12-03T15:08:32.508Z,2.37
2022-12-03T15:10:07.636Z,2.35
2022-12-03T15:11:13.687Z,2.36
2022-12-03T15:12:19.504Z,2.38
2022-12-03T15:13:30.182Z,2.39
2022-12-03T15:14:34.796Z,2.35
2022-12-03T15:15:46.678Z,2.39
2022-12-03T15:17:00.305Z,2.37
2022-12-03T15:18:05.427Z,2.35
2022-12-03T15:19:18.028Z,2.32
2022-12-03T15:20:33.562Z,2.31
2022-12-03T15:21:48.792Z,2.27
2022-12-03T15:23:14.705Z,2.28
2022-12-03T15:24:24.621Z,2.30
2022-12-03T15:25:36.284Z,2.35
2022-12-03T15:26:40.813Z,2.32
2022-12-03T15:27:45.768Z,2.33
2022-12-03T15:28:55.481Z,2.38
2022-12-03T15:30:01.429Z,2.40
2022-12-03T15:31:25.772Z,2.40
2022-12-03T15:32:33.904Z,2.44
2022-12-03T15:33:50.475Z,2.45
2022-12-03T15:35:28.673Z,2.52
2022-12-03T15:38:05.258Z,2.55
2022-12-03T15:39:09.878Z,2.57
2022-12-03T15:40:17.062Z,2.61
2022-12-03T15:41:21.619Z,2.63
2022-12-03T15:42:26.042Z,2.58
2022-12-03T15:43:29.640Z,2.63
2022-12-03T15:44:33.421Z,2.65
2022-12-03T15:45:37.774Z,2.63
2022-12-03T15:46:41.500Z,2.66
2022-12-03T15:47:46.006Z,2.67
2022-12-03T15:48:52.136Z,2.68
2022-12-03T15:49:56.146Z,2.69
2022-12-03T15:50:59.893Z,2.69
2022-12-03T15:52:04.763Z,2.72
2022-12-03T15:53:12.005Z,2.66
2022-12-03T15:54:15.979Z,2.58
2022-12-03T15:55:19.827Z,2.61
2022-12-03T15:56:23.982Z,2.60
2022-12-03T15:57:27.777Z,2.61
2022-12-03T15:58:32.245Z,2.67
2022-12-03T15:59:38.015Z,2.67
2022-12-03T16:00:43.415Z,2.68
2022-12-03T16:01:47.210Z,2.68
2022-12-03T16:02:53.202Z,2.68
2022-12-03T16:04:00.350Z,2.66
2022-12-03T16:05:09.178Z,2.67
2022-12-03T16:06:14.877Z,2.68
2022-12-03T16:07:18.921Z,2.70
2022-12-03T16:08:23.030Z,2.72
2022-12-03T16:09:27.767Z,2.70
2022-12-03T16:10:33.288Z,2.73
2022-12-03T16:11:37.845Z,2.74
2022-12-03T16:12:41.642Z,2.75